sensor_id;sensor_type;location;lat;lon;timestamp;temperature;humidity
20376;DHT22;10347;51.828;6.466;2022-12-18T00:01:15;-1.60;99.90
20376;DHT22;10347;51.828;6.466;2022-12-18T00:03:41;-1.60;99.90
20376;DHT22;10347;51.828;6.466;2022-12-18T00:06:07;-1.60;99.90
20376;DHT22;10347;51.828;6.466;2022-12-18T00:08:34;-1.60;99.90
20376;DHT22;10347;51.828;6.466;2022-12-18T00:11:04;-1.60;99.90
20376;DHT22;10347;51.828;6.466;2022-12-18T00:13:30;-1.60;99.90
20376;DHT22;10347;51.828;6.466;2022-12-18T00:16:02;-1.70;99.90
20376;DHT22;10347;51.828;6.466;2022-12-18T00:18:28;-1.70;99.90
20376;DHT22;10347;51.828;6.466;2022-12-18T00:20:53;-1.70;99.90
20376;DHT22;10347;51.828;6.466;2022-12-18T00:23:19;-1.70;99.90
20376;DHT22;10347;51.828;6.466;2022-12-18T00:25:44;-1.70;99.90
20376;DHT22;10347;51.828;6.466;2022-12-18T00:28:10;-1.80;99.90
20376;DHT22;10347;51.828;6.466;2022-12-18T00:30:35;-1.90;99.90
20376;DHT22;10347;51.828;6.466;2022-12-18T00:33:01;-2.00;99.90
20376;DHT22;10347;51.828;6.466;2022-12-18T00:35:26;-2.00;99.90
20376;DHT22;10347;51.828;6.466;2022-12-18T00:37:52;-2.00;99.90
20376;DHT22;10347;51.828;6.466;2022-12-18T00:40:17;-2.00;99.90
20376;DHT22;10347;51.828;6.466;2022-12-18T00:42:43;-2.00;99.90
20376;DHT22;10347;51.828;6.466;2022-12-18T00:45:28;-2.00;99.90
20376;DHT22;10347;51.828;6.466;2022-12-18T00:47:55;-2.00;99.90
20376;DHT22;10347;51.828;6.466;2022-12-18T00:50:21;-2.00;99.90
20376;DHT22;10347;51.828;6.466;2022-12-18T00:52:47;-1.90;99.90
20376;DHT22;10347;51.828;6.466;2022-12-18T00:55:13;-2.00;99.90
20376;DHT22;10347;51.828;6.466;2022-12-18T00:57:39;-2.00;99.90
20376;DHT22;10347;51.828;6.466;2022-12-18T01:00:06;-2.00;99.90
20376;DHT22;10347;51.828;6.466;2022-12-18T01:02:32;-2.10;99.90
20376;DHT22;10347;51.828;6.466;2022-12-18T01:04:57;-2.10;99.90
20376;DHT22;10347;51.828;6.466;2022-12-18T01:07:23;-2.10;99.90
20376;DHT22;10347;51.828;6.466;2022-12-18T01:09:48;-2.00;99.90
20376;DHT22;10347;51.828;6.466;2022-12-18T01:12:14;-2.00;99.90
20376;DHT22;10347;51.828;6.466;2022-12-18T01:14:39;-2.00;99.90
20376;DHT22;10347;51.828;6.466;2022-12-18T01:17:05;-2.00;99.90
20376;DHT22;10347;51.828;6.466;2022-12-18T01:19:31;-2.00;99.90
20376;DHT22;10347;51.828;6.466;2022-12-18T01:21:56;-2.00;99.90
20376;DHT22;10347;51.828;6.466;2022-12-18T01:24:22;-2.00;99.90
20376;DHT22;10347;51.828;6.466;2022-12-18T01:26:48;-2.00;99.90
20376;DHT22;10347;51.828;6.466;2022-12-18T01:29:13;-2.10;99.90
20376;DHT22;10347;51.828;6.466;2022-12-18T01:31:39;-2.10;99.90
20376;DHT22;10347;51.828;6.466;2022-12-18T01:34:05;-2.10;99.90
20376;DHT22;10347;51.828;6.466;2022-12-18T01:36:35;-2.20;99.90
20376;DHT22;10347;51.828;6.466;2022-12-18T01:39:04;-2.10;99.90
20376;DHT22;10347;51.828;6.466;2022-12-18T01:41:32;-2.20;99.90
20376;DHT22;10347;51.828;6.466;2022-12-18T01:47:28;-2.20;99.90
20376;DHT22;10347;51.828;6.466;2022-12-18T01:49:55;-2.20;99.90
20376;DHT22;10347;51.828;6.466;2022-12-18T01:52:22;-2.20;99.90
20376;DHT22;10347;51.828;6.466;2022-12-18T01:54:50;-2.10;99.90
20376;DHT22;10347;51.828;6.466;2022-12-18T01:57:17;-2.20;99.90
20376;DHT22;10347;51.828;6.466;2022-12-18T01:59:45;-2.20;99.90
20376;DHT22;10347;51.828;6.466;2022-12-18T02:02:12;-2.20;99.90
20376;DHT22;10347;51.828;6.466;2022-12-18T02:04:39;-2.20;99.90
20376;DHT22;10347;51.828;6.466;2022-12-18T02:10:00;-2.20;99.90
20376;DHT22;10347;51.828;6.466;2022-12-18T02:12:35;-2.20;99.90
20376;DHT22;10347;51.828;6.466;2022-12-18T02:15:08;-2.20;99.90
20376;DHT22;10347;51.828;6.466;2022-12-18T02:17:43;-2.20;99.90
20376;DHT22;10347;51.828;6.466;2022-12-18T02:20:35;-2.20;99.90
20376;DHT22;10347;51.828;6.466;2022-12-18T02:29:07;-2.20;99.90
20376;DHT22;10347;51.828;6.466;2022-12-18T02:31:42;-2.30;99.90
20376;DHT22;10347;51.828;6.466;2022-12-18T02:34:09;-2.30;99.90
20376;DHT22;10347;51.828;6.466;2022-12-18T02:36:38;-2.30;99.90
20376;DHT22;10347;51.828;6.466;2022-12-18T02:39:06;-2.30;99.90
20376;DHT22;10347;51.828;6.466;2022-12-18T02:41:33;-2.30;99.90
20376;DHT22;10347;51.828;6.466;2022-12-18T02:44:02;-2.30;99.90
20376;DHT22;10347;51.828;6.466;2022-12-18T02:46:38;-2.30;99.90
20376;DHT22;10347;51.828;6.466;2022-12-18T02:49:30;-2.30;99.90
20376;DHT22;10347;51.828;6.466;2022-12-18T02:57:34;-2.40;99.90
20376;DHT22;10347;51.828;6.466;2022-12-18T03:00:16;-2.30;99.90
20376;DHT22;10347;51.828;6.466;2022-12-18T03:02:46;-2.30;99.90
20376;DHT22;10347;51.828;6.466;2022-12-18T03:05:30;-2.30;99.90
20376;DHT22;10347;51.828;6.466;2022-12-18T03:08:03;-2.30;99.90
20376;DHT22;10347;51.828;6.466;2022-12-18T03:10:35;-2.40;99.90
20376;DHT22;10347;51.828;6.466;2022-12-18T03:13:09;-2.50;99.90
20376;DHT22;10347;51.828;6.466;2022-12-18T03:15:50;-2.50;99.90
20376;DHT22;10347;51.828;6.466;2022-12-18T03:18:37;-2.60;99.90
20376;DHT22;10347;51.828;6.466;2022-12-18T03:21:06;-2.60;99.90
20376;DHT22;10347;51.828;6.466;2022-12-18T03:23:37;-2.60;99.90
20376;DHT22;10347;51.828;6.466;2022-12-18T03:26:08;-2.50;99.90
20376;DHT22;10347;51.828;6.466;2022-12-18T03:28:38;-2.50;99.90
20376;DHT22;10347;51.828;6.466;2022-12-18T03:31:05;-2.50;99.90
20376;DHT22;10347;51.828;6.466;2022-12-18T03:33:40;-2.50;99.90
20376;DHT22;10347;51.828;6.466;2022-12-18T03:36:07;-2.40;99.90
20376;DHT22;10347;51.828;6.466;2022-12-18T03:38:33;-2.50;99.90
20376;DHT22;10347;51.828;6.466;2022-12-18T03:47:07;-2.40;99.90
20376;DHT22;10347;51.828;6.466;2022-12-18T03:49:36;-2.40;99.90
20376;DHT22;10347;51.828;6.466;2022-12-18T03:54:58;-2.40;99.90
20376;DHT22;10347;51.828;6.466;2022-12-18T03:57:28;-2.40;99.90
20376;DHT22;10347;51.828;6.466;2022-12-18T03:59:58;-2.40;99.90
20376;DHT22;10347;51.828;6.466;2022-12-18T04:02:26;-2.40;99.90
20376;DHT22;10347;51.828;6.466;2022-12-18T04:04:57;-2.40;99.90
20376;DHT22;10347;51.828;6.466;2022-12-18T04:07:24;-2.50;99.90
20376;DHT22;10347;51.828;6.466;2022-12-18T04:09:52;-2.50;99.90
20376;DHT22;10347;51.828;6.466;2022-12-18T04:12:19;-2.50;99.90
20376;DHT22;10347;51.828;6.466;2022-12-18T04:14:44;-2.50;99.90
20376;DHT22;10347;51.828;6.466;2022-12-18T04:17:10;-2.60;99.90
20376;DHT22;10347;51.828;6.466;2022-12-18T04:19:36;-2.50;99.90
20376;DHT22;10347;51.828;6.466;2022-12-18T04:22:01;-2.60;99.90
20376;DHT22;10347;51.828;6.466;2022-12-18T04:24:27;-2.60;99.90
20376;DHT22;10347;51.828;6.466;2022-12-18T04:26:52;-2.50;99.90
20376;DHT22;10347;51.828;6.466;2022-12-18T04:29:18;-2.50;99.90
20376;DHT22;10347;51.828;6.466;2022-12-18T04:31:43;-2.60;99.90
20376;DHT22;10347;51.828;6.466;2022-12-18T04:34:09;-2.60;99.90
20376;DHT22;10347;51.828;6.466;2022-12-18T04:36:34;-2.60;99.90
20376;DHT22;10347;51.828;6.466;2022-12-18T04:39:00;-2.60;99.90
20376;DHT22;10347;51.828;6.466;2022-12-18T04:41:25;-2.60;99.90
20376;DHT22;10347;51.828;6.466;2022-12-18T04:43:51;-2.60;99.90
20376;DHT22;10347;51.828;6.466;2022-12-18T04:46:17;-2.70;99.90
20376;DHT22;10347;51.828;6.466;2022-12-18T04:48:45;-2.70;99.90
20376;DHT22;10347;51.828;6.466;2022-12-18T04:51:12;-2.70;99.90
20376;DHT22;10347;51.828;6.466;2022-12-18T04:53:37;-2.80;99.90
20376;DHT22;10347;51.828;6.466;2022-12-18T04:56:08;-2.80;99.90
20376;DHT22;10347;51.828;6.466;2022-12-18T04:58:35;-2.80;99.90
20376;DHT22;10347;51.828;6.466;2022-12-18T05:01:01;-2.80;99.90
20376;DHT22;10347;51.828;6.466;2022-12-18T05:03:26;-2.80;99.90
20376;DHT22;10347;51.828;6.466;2022-12-18T05:05:52;-2.80;99.90
20376;DHT22;10347;51.828;6.466;2022-12-18T05:08:18;-2.80;99.90
20376;DHT22;10347;51.828;6.466;2022-12-18T05:10:44;-2.80;99.90
20376;DHT22;10347;51.828;6.466;2022-12-18T05:13:10;-2.80;99.90
20376;DHT22;10347;51.828;6.466;2022-12-18T05:15:36;-2.70;99.90
20376;DHT22;10347;51.828;6.466;2022-12-18T05:18:02;-2.70;99.90
20376;DHT22;10347;51.828;6.466;2022-12-18T05:20:28;-2.70;99.90
20376;DHT22;10347;51.828;6.466;2022-12-18T05:22:53;-2.70;99.90
20376;DHT22;10347;51.828;6.466;2022-12-18T05:25:19;-2.70;99.90
20376;DHT22;10347;51.828;6.466;2022-12-18T05:27:46;-2.70;99.90
20376;DHT22;10347;51.828;6.466;2022-12-18T05:30:12;-2.70;99.90
20376;DHT22;10347;51.828;6.466;2022-12-18T05:32:38;-2.70;99.90
20376;DHT22;10347;51.828;6.466;2022-12-18T05:35:06;-2.70;99.90
20376;DHT22;10347;51.828;6.466;2022-12-18T05:37:32;-2.70;99.90
20376;DHT22;10347;51.828;6.466;2022-12-18T05:39:58;-2.70;99.90
20376;DHT22;10347;51.828;6.466;2022-12-18T05:42:23;-2.70;99.90
20376;DHT22;10347;51.828;6.466;2022-12-18T05:44:49;-2.70;99.90
20376;DHT22;10347;51.828;6.466;2022-12-18T05:47:14;-2.70;99.90
20376;DHT22;10347;51.828;6.466;2022-12-18T05:49:40;-2.70;99.90
20376;DHT22;10347;51.828;6.466;2022-12-18T05:52:05;-2.70;99.90
20376;DHT22;10347;51.828;6.466;2022-12-18T05:54:31;-2.70;99.90
20376;DHT22;10347;51.828;6.466;2022-12-18T05:56:57;-2.60;99.90
20376;DHT22;10347;51.828;6.466;2022-12-18T05:59:23;-2.60;99.90
20376;DHT22;10347;51.828;6.466;2022-12-18T06:01:49;-2.60;99.90
20376;DHT22;10347;51.828;6.466;2022-12-18T06:04:14;-2.70;99.90
20376;DHT22;10347;51.828;6.466;2022-12-18T06:06:40;-2.70;99.90
20376;DHT22;10347;51.828;6.466;2022-12-18T06:09:06;-2.60;99.90
20376;DHT22;10347;51.828;6.466;2022-12-18T06:11:38;-2.70;99.90
20376;DHT22;10347;51.828;6.466;2022-12-18T06:14:05;-2.70;99.90
20376;DHT22;10347;51.828;6.466;2022-12-18T06:16:31;-2.70;99.90
20376;DHT22;10347;51.828;6.466;2022-12-18T06:18:58;-2.70;99.90
20376;DHT22;10347;51.828;6.466;2022-12-18T06:21:24;-2.70;99.90
20376;DHT22;10347;51.828;6.466;2022-12-18T06:23:49;-2.80;99.90
20376;DHT22;10347;51.828;6.466;2022-12-18T06:26:15;-2.80;99.90
20376;DHT22;10347;51.828;6.466;2022-12-18T06:28:41;-2.80;99.90
20376;DHT22;10347;51.828;6.466;2022-12-18T06:31:08;-2.80;99.90
20376;DHT22;10347;51.828;6.466;2022-12-18T06:33:34;-2.80;99.90
20376;DHT22;10347;51.828;6.466;2022-12-18T06:36:02;-2.80;99.90
20376;DHT22;10347;51.828;6.466;2022-12-18T06:38:28;-2.80;99.90
20376;DHT22;10347;51.828;6.466;2022-12-18T06:40:54;-2.90;99.90
20376;DHT22;10347;51.828;6.466;2022-12-18T06:43:19;-2.90;99.90
20376;DHT22;10347;51.828;6.466;2022-12-18T06:45:45;-2.80;99.90
20376;DHT22;10347;51.828;6.466;2022-12-18T06:48:14;-2.90;99.90
20376;DHT22;10347;51.828;6.466;2022-12-18T06:50:42;-2.80;99.90
20376;DHT22;10347;51.828;6.466;2022-12-18T06:53:08;-2.80;99.90
20376;DHT22;10347;51.828;6.466;2022-12-18T06:55:33;-2.80;99.90
20376;DHT22;10347;51.828;6.466;2022-12-18T06:57:59;-2.80;99.90
20376;DHT22;10347;51.828;6.466;2022-12-18T07:00:24;-2.80;99.90
20376;DHT22;10347;51.828;6.466;2022-12-18T07:02:50;-2.90;99.90
20376;DHT22;10347;51.828;6.466;2022-12-18T07:05:15;-2.80;99.90
20376;DHT22;10347;51.828;6.466;2022-12-18T07:07:41;-2.80;99.90
20376;DHT22;10347;51.828;6.466;2022-12-18T07:10:07;-2.80;99.90
20376;DHT22;10347;51.828;6.466;2022-12-18T07:12:32;-2.80;99.90
20376;DHT22;10347;51.828;6.466;2022-12-18T07:14:58;-2.80;99.90
20376;DHT22;10347;51.828;6.466;2022-12-18T07:17:23;-2.80;99.90
20376;DHT22;10347;51.828;6.466;2022-12-18T07:19:49;-2.80;99.90
20376;DHT22;10347;51.828;6.466;2022-12-18T07:22:14;-2.80;99.90
20376;DHT22;10347;51.828;6.466;2022-12-18T07:24:40;-2.80;99.90
20376;DHT22;10347;51.828;6.466;2022-12-18T07:27:05;-2.70;99.90
20376;DHT22;10347;51.828;6.466;2022-12-18T07:29:31;-2.80;99.90
20376;DHT22;10347;51.828;6.466;2022-12-18T07:31:56;-2.70;99.90
20376;DHT22;10347;51.828;6.466;2022-12-18T07:34:22;-2.70;99.90
20376;DHT22;10347;51.828;6.466;2022-12-18T07:36:48;-2.70;99.90
20376;DHT22;10347;51.828;6.466;2022-12-18T07:39:13;-2.70;99.90
20376;DHT22;10347;51.828;6.466;2022-12-18T07:41:39;-2.70;99.90
20376;DHT22;10347;51.828;6.466;2022-12-18T07:44:10;-2.70;99.90
20376;DHT22;10347;51.828;6.466;2022-12-18T07:46:36;-2.70;99.90
20376;DHT22;10347;51.828;6.466;2022-12-18T07:49:01;-2.70;99.90
20376;DHT22;10347;51.828;6.466;2022-12-18T07:51:27;-2.70;99.90
20376;DHT22;10347;51.828;6.466;2022-12-18T07:53:52;-2.70;99.90
20376;DHT22;10347;51.828;6.466;2022-12-18T07:56:18;-2.70;99.90
20376;DHT22;10347;51.828;6.466;2022-12-18T07:58:47;-2.60;99.90
20376;DHT22;10347;51.828;6.466;2022-12-18T08:01:12;-2.60;99.90
20376;DHT22;10347;51.828;6.466;2022-12-18T08:03:39;-2.60;99.90
20376;DHT22;10347;51.828;6.466;2022-12-18T08:06:08;-2.60;99.90
20376;DHT22;10347;51.828;6.466;2022-12-18T08:08:34;-2.70;99.90
20376;DHT22;10347;51.828;6.466;2022-12-18T08:11:01;-2.70;99.90
20376;DHT22;10347;51.828;6.466;2022-12-18T08:13:27;-2.70;99.90
20376;DHT22;10347;51.828;6.466;2022-12-18T08:16:01;-2.70;99.90
20376;DHT22;10347;51.828;6.466;2022-12-18T08:18:28;-2.80;99.90
20376;DHT22;10347;51.828;6.466;2022-12-18T08:20:54;-2.80;99.90
20376;DHT22;10347;51.828;6.466;2022-12-18T08:23:19;-2.80;99.90
20376;DHT22;10347;51.828;6.466;2022-12-18T08:25:45;-2.80;99.90
20376;DHT22;10347;51.828;6.466;2022-12-18T08:28:11;-2.80;99.90
20376;DHT22;10347;51.828;6.466;2022-12-18T08:30:37;-2.80;99.90
20376;DHT22;10347;51.828;6.466;2022-12-18T08:33:03;-2.70;99.90
20376;DHT22;10347;51.828;6.466;2022-12-18T08:35:29;-2.70;99.90
20376;DHT22;10347;51.828;6.466;2022-12-18T08:37:54;-2.70;99.90
20376;DHT22;10347;51.828;6.466;2022-12-18T08:40:20;-2.60;99.90
20376;DHT22;10347;51.828;6.466;2022-12-18T08:42:45;-2.60;99.90
20376;DHT22;10347;51.828;6.466;2022-12-18T08:45:30;-2.50;99.90
20376;DHT22;10347;51.828;6.466;2022-12-18T08:47:55;-2.50;99.90
20376;DHT22;10347;51.828;6.466;2022-12-18T08:50:21;-2.50;99.90
20376;DHT22;10347;51.828;6.466;2022-12-18T08:52:47;-2.40;99.90
20376;DHT22;10347;51.828;6.466;2022-12-18T08:55:12;-2.40;99.90
20376;DHT22;10347;51.828;6.466;2022-12-18T08:57:38;-2.30;99.90
20376;DHT22;10347;51.828;6.466;2022-12-18T09:00:04;-2.30;99.90
20376;DHT22;10347;51.828;6.466;2022-12-18T09:02:30;-2.30;99.90
20376;DHT22;10347;51.828;6.466;2022-12-18T09:04:55;-2.30;99.90
20376;DHT22;10347;51.828;6.466;2022-12-18T09:07:21;-2.20;99.90
20376;DHT22;10347;51.828;6.466;2022-12-18T09:09:46;-2.20;99.90
20376;DHT22;10347;51.828;6.466;2022-12-18T09:12:12;-2.10;99.90
20376;DHT22;10347;51.828;6.466;2022-12-18T09:14:37;-2.10;99.90
20376;DHT22;10347;51.828;6.466;2022-12-18T09:17:03;-2.10;99.90
20376;DHT22;10347;51.828;6.466;2022-12-18T09:19:28;-2.00;99.90
20376;DHT22;10347;51.828;6.466;2022-12-18T09:21:54;-2.00;99.90
20376;DHT22;10347;51.828;6.466;2022-12-18T09:24:19;-1.90;99.90
20376;DHT22;10347;51.828;6.466;2022-12-18T09:26:45;-1.90;99.90
20376;DHT22;10347;51.828;6.466;2022-12-18T09:29:10;-1.90;99.90
20376;DHT22;10347;51.828;6.466;2022-12-18T09:31:36;-1.80;99.90
20376;DHT22;10347;51.828;6.466;2022-12-18T09:34:03;-1.80;99.90
20376;DHT22;10347;51.828;6.466;2022-12-18T09:36:28;-1.70;99.90
20376;DHT22;10347;51.828;6.466;2022-12-18T09:38:54;-1.70;99.90
20376;DHT22;10347;51.828;6.466;2022-12-18T09:44:01;-1.60;99.90
20376;DHT22;10347;51.828;6.466;2022-12-18T09:46:34;-1.60;99.90
20376;DHT22;10347;51.828;6.466;2022-12-18T09:49:05;-1.60;99.90
20376;DHT22;10347;51.828;6.466;2022-12-18T09:51:37;-1.50;99.90
20376;DHT22;10347;51.828;6.466;2022-12-18T09:54:10;-1.50;99.90
20376;DHT22;10347;51.828;6.466;2022-12-18T09:56:40;-1.50;99.90
20376;DHT22;10347;51.828;6.466;2022-12-18T10:01:42;-1.40;99.90
20376;DHT22;10347;51.828;6.466;2022-12-18T10:04:08;-1.30;99.90
20376;DHT22;10347;51.828;6.466;2022-12-18T10:06:50;-1.30;99.90
20376;DHT22;10347;51.828;6.466;2022-12-18T10:18:02;-1.10;99.90
20376;DHT22;10347;51.828;6.466;2022-12-18T10:20:33;-1.10;99.90
20376;DHT22;10347;51.828;6.466;2022-12-18T10:23:27;-1.10;99.90
20376;DHT22;10347;51.828;6.466;2022-12-18T10:26:07;-1.00;99.90
20376;DHT22;10347;51.828;6.466;2022-12-18T10:28:36;-1.00;99.90
20376;DHT22;10347;51.828;6.466;2022-12-18T10:31:05;-0.90;99.90
20376;DHT22;10347;51.828;6.466;2022-12-18T10:33:32;-0.90;99.90
20376;DHT22;10347;51.828;6.466;2022-12-18T10:35:58;-0.80;99.90
20376;DHT22;10347;51.828;6.466;2022-12-18T10:38:27;-0.80;99.90
20376;DHT22;10347;51.828;6.466;2022-12-18T10:41:06;-0.80;99.90
20376;DHT22;10347;51.828;6.466;2022-12-18T10:43:38;-0.70;99.90
20376;DHT22;10347;51.828;6.466;2022-12-18T10:53:57;-0.60;99.90
20376;DHT22;10347;51.828;6.466;2022-12-18T10:56:25;-0.60;99.90
20376;DHT22;10347;51.828;6.466;2022-12-18T10:59:08;-0.50;99.90
20376;DHT22;10347;51.828;6.466;2022-12-18T11:01:47;-0.50;99.90
20376;DHT22;10347;51.828;6.466;2022-12-18T11:04:18;-0.40;99.90
20376;DHT22;10347;51.828;6.466;2022-12-18T11:07:07;-0.40;99.90
20376;DHT22;10347;51.828;6.466;2022-12-18T11:09:36;-0.40;99.90
20376;DHT22;10347;51.828;6.466;2022-12-18T11:12:15;-0.40;99.90
20376;DHT22;10347;51.828;6.466;2022-12-18T11:14:52;-0.30;99.90
20376;DHT22;10347;51.828;6.466;2022-12-18T11:17:20;-0.30;99.90
20376;DHT22;10347;51.828;6.466;2022-12-18T11:19:53;-0.30;99.90
20376;DHT22;10347;51.828;6.466;2022-12-18T11:22:24;-0.20;99.90
20376;DHT22;10347;51.828;6.466;2022-12-18T11:25:04;-0.20;99.90
20376;DHT22;10347;51.828;6.466;2022-12-18T11:27:31;-0.10;99.90
20376;DHT22;10347;51.828;6.466;2022-12-18T11:38:24;0.00;99.90
20376;DHT22;10347;51.828;6.466;2022-12-18T11:43:52;0.10;99.90
20376;DHT22;10347;51.828;6.466;2022-12-18T11:46:37;0.10;99.90
20376;DHT22;10347;51.828;6.466;2022-12-18T11:51:41;0.10;99.90
20376;DHT22;10347;51.828;6.466;2022-12-18T11:54:13;0.20;99.90
20376;DHT22;10347;51.828;6.466;2022-12-18T11:56:55;0.20;99.90
20376;DHT22;10347;51.828;6.466;2022-12-18T12:00:01;0.30;99.90
20376;DHT22;10347;51.828;6.466;2022-12-18T12:08:01;0.30;99.90
20376;DHT22;10347;51.828;6.466;2022-12-18T12:23:49;0.50;99.90
20376;DHT22;10347;51.828;6.466;2022-12-18T12:29:00;0.60;99.90
20376;DHT22;10347;51.828;6.466;2022-12-18T12:37:19;0.70;99.90
20376;DHT22;10347;51.828;6.466;2022-12-18T12:39:48;0.70;99.90
20376;DHT22;10347;51.828;6.466;2022-12-18T12:45:20;0.80;99.90
20376;DHT22;10347;51.828;6.466;2022-12-18T12:47:48;0.80;99.90
20376;DHT22;10347;51.828;6.466;2022-12-18T12:50:18;0.80;99.90
20376;DHT22;10347;51.828;6.466;2022-12-18T12:52:47;0.90;99.90
20376;DHT22;10347;51.828;6.466;2022-12-18T12:55:22;0.90;99.90
20376;DHT22;10347;51.828;6.466;2022-12-18T12:58:17;0.90;99.90
20376;DHT22;10347;51.828;6.466;2022-12-18T13:08:56;1.00;99.90
20376;DHT22;10347;51.828;6.466;2022-12-18T13:14:34;1.00;99.90
20376;DHT22;10347;51.828;6.466;2022-12-18T13:20:10;1.10;99.90
20376;DHT22;10347;51.828;6.466;2022-12-18T13:22:47;1.10;99.90
20376;DHT22;10347;51.828;6.466;2022-12-18T13:25:31;1.10;99.90
20376;DHT22;10347;51.828;6.466;2022-12-18T13:38:36;1.20;99.90
20376;DHT22;10347;51.828;6.466;2022-12-18T13:43:55;1.20;99.90
20376;DHT22;10347;51.828;6.466;2022-12-18T13:46:47;1.30;99.90
20376;DHT22;10347;51.828;6.466;2022-12-18T13:51:44;1.30;99.90
20376;DHT22;10347;51.828;6.466;2022-12-18T13:56:46;1.30;99.90
20376;DHT22;10347;51.828;6.466;2022-12-18T13:59:22;1.40;99.90
20376;DHT22;10347;51.828;6.466;2022-12-18T14:01:55;1.40;99.90
20376;DHT22;10347;51.828;6.466;2022-12-18T14:04:30;1.40;99.90
20376;DHT22;10347;51.828;6.466;2022-12-18T14:09:34;1.40;99.90
20376;DHT22;10347;51.828;6.466;2022-12-18T14:12:01;1.50;99.90
20376;DHT22;10347;51.828;6.466;2022-12-18T14:14:48;1.50;99.90
20376;DHT22;10347;51.828;6.466;2022-12-18T14:17:15;1.50;99.90
20376;DHT22;10347;51.828;6.466;2022-12-18T14:19:51;1.50;99.90
20376;DHT22;10347;51.828;6.466;2022-12-18T14:22:22;1.50;99.90
20376;DHT22;10347;51.828;6.466;2022-12-18T14:27:44;1.60;99.90
20376;DHT22;10347;51.828;6.466;2022-12-18T14:33:10;1.60;99.90
20376;DHT22;10347;51.828;6.466;2022-12-18T14:35:41;1.70;99.90
20376;DHT22;10347;51.828;6.466;2022-12-18T14:40:46;1.70;99.90
20376;DHT22;10347;51.828;6.466;2022-12-18T14:43:12;1.70;99.90
20376;DHT22;10347;51.828;6.466;2022-12-18T14:45:41;1.70;99.90
20376;DHT22;10347;51.828;6.466;2022-12-18T14:48:12;1.70;99.90
20376;DHT22;10347;51.828;6.466;2022-12-18T14:50:39;1.70;99.90
20376;DHT22;10347;51.828;6.466;2022-12-18T14:53:04;1.70;99.90
20376;DHT22;10347;51.828;6.466;2022-12-18T14:55:33;1.70;99.90
20376;DHT22;10347;51.828;6.466;2022-12-18T14:57:58;1.80;99.90
20376;DHT22;10347;51.828;6.466;2022-12-18T15:00:25;1.80;99.90
20376;DHT22;10347;51.828;6.466;2022-12-18T15:02:55;1.80;99.90
20376;DHT22;10347;51.828;6.466;2022-12-18T15:05:28;1.80;99.90
20376;DHT22;10347;51.828;6.466;2022-12-18T15:08:25;1.80;99.90
20376;DHT22;10347;51.828;6.466;2022-12-18T15:10:49;1.80;99.90
20376;DHT22;10347;51.828;6.466;2022-12-18T15:13:22;1.80;99.90
20376;DHT22;10347;51.828;6.466;2022-12-18T15:15:48;1.80;99.90
20376;DHT22;10347;51.828;6.466;2022-12-18T15:18:16;1.90;99.90
20376;DHT22;10347;51.828;6.466;2022-12-18T15:20:54;1.90;99.90
20376;DHT22;10347;51.828;6.466;2022-12-18T15:23:51;1.90;99.90
20376;DHT22;10347;51.828;6.466;2022-12-18T15:26:20;1.90;99.90
20376;DHT22;10347;51.828;6.466;2022-12-18T15:28:51;1.90;99.90
20376;DHT22;10347;51.828;6.466;2022-12-18T15:36:17;2.00;99.90
20376;DHT22;10347;51.828;6.466;2022-12-18T15:38:47;2.00;99.90
20376;DHT22;10347;51.828;6.466;2022-12-18T15:41:14;2.00;99.90
20376;DHT22;10347;51.828;6.466;2022-12-18T15:43:40;2.00;99.90
20376;DHT22;10347;51.828;6.466;2022-12-18T15:46:12;2.00;99.90
20376;DHT22;10347;51.828;6.466;2022-12-18T15:48:41;2.00;99.90
20376;DHT22;10347;51.828;6.466;2022-12-18T15:51:28;2.00;99.90
20376;DHT22;10347;51.828;6.466;2022-12-18T15:53:56;2.00;99.90
20376;DHT22;10347;51.828;6.466;2022-12-18T15:56:23;2.00;99.90
20376;DHT22;10347;51.828;6.466;2022-12-18T15:59:13;2.00;99.90
20376;DHT22;10347;51.828;6.466;2022-12-18T16:01:39;2.00;99.90
20376;DHT22;10347;51.828;6.466;2022-12-18T16:04:05;2.00;99.90
20376;DHT22;10347;51.828;6.466;2022-12-18T16:06:30;2.00;99.90
20376;DHT22;10347;51.828;6.466;2022-12-18T16:08:56;2.00;99.90
20376;DHT22;10347;51.828;6.466;2022-12-18T16:14:22;2.00;99.90
20376;DHT22;10347;51.828;6.466;2022-12-18T16:16:52;2.00;99.90
20376;DHT22;10347;51.828;6.466;2022-12-18T16:19:19;2.00;99.90
20376;DHT22;10347;51.828;6.466;2022-12-18T16:21:46;2.00;99.90
20376;DHT22;10347;51.828;6.466;2022-12-18T16:24:15;2.00;99.90
20376;DHT22;10347;51.828;6.466;2022-12-18T16:26:42;2.10;99.90
20376;DHT22;10347;51.828;6.466;2022-12-18T16:29:08;2.10;99.90
20376;DHT22;10347;51.828;6.466;2022-12-18T16:31:34;2.10;99.90
20376;DHT22;10347;51.828;6.466;2022-12-18T16:34:20;2.10;99.90
20376;DHT22;10347;51.828;6.466;2022-12-18T16:36:52;2.10;99.90
20376;DHT22;10347;51.828;6.466;2022-12-18T16:39:19;2.10;99.90
20376;DHT22;10347;51.828;6.466;2022-12-18T16:41:44;2.10;99.90
20376;DHT22;10347;51.828;6.466;2022-12-18T16:44:10;2.10;99.90
20376;DHT22;10347;51.828;6.466;2022-12-18T16:46:36;2.10;99.90
20376;DHT22;10347;51.828;6.466;2022-12-18T16:49:02;2.10;99.90
20376;DHT22;10347;51.828;6.466;2022-12-18T16:51:28;2.10;99.90
20376;DHT22;10347;51.828;6.466;2022-12-18T16:53:54;2.20;99.90
20376;DHT22;10347;51.828;6.466;2022-12-18T16:56:20;2.20;99.90
20376;DHT22;10347;51.828;6.466;2022-12-18T16:58:54;2.20;99.90
20376;DHT22;10347;51.828;6.466;2022-12-18T17:01:20;2.20;99.90
20376;DHT22;10347;51.828;6.466;2022-12-18T17:03:57;2.20;99.90
20376;DHT22;10347;51.828;6.466;2022-12-18T17:06:24;2.20;99.90
20376;DHT22;10347;51.828;6.466;2022-12-18T17:08:57;2.20;99.90
20376;DHT22;10347;51.828;6.466;2022-12-18T17:11:24;2.20;99.90
20376;DHT22;10347;51.828;6.466;2022-12-18T17:13:50;2.20;99.90
20376;DHT22;10347;51.828;6.466;2022-12-18T17:16:16;2.20;99.90
20376;DHT22;10347;51.828;6.466;2022-12-18T17:18:44;2.10;99.90
20376;DHT22;10347;51.828;6.466;2022-12-18T17:21:10;2.20;99.90
20376;DHT22;10347;51.828;6.466;2022-12-18T17:23:41;2.20;99.90
20376;DHT22;10347;51.828;6.466;2022-12-18T17:26:13;2.20;99.90
20376;DHT22;10347;51.828;6.466;2022-12-18T17:28:40;2.20;99.90
20376;DHT22;10347;51.828;6.466;2022-12-18T17:31:32;2.20;99.90
20376;DHT22;10347;51.828;6.466;2022-12-18T17:34:01;2.20;99.90
20376;DHT22;10347;51.828;6.466;2022-12-18T17:36:27;2.20;99.90
20376;DHT22;10347;51.828;6.466;2022-12-18T17:38:57;2.20;99.90
20376;DHT22;10347;51.828;6.466;2022-12-18T17:41:24;2.20;99.90
20376;DHT22;10347;51.828;6.466;2022-12-18T17:43:51;2.20;99.90
20376;DHT22;10347;51.828;6.466;2022-12-18T17:46:17;2.20;99.90
20376;DHT22;10347;51.828;6.466;2022-12-18T17:48:43;2.20;99.90
20376;DHT22;10347;51.828;6.466;2022-12-18T17:51:09;2.10;99.90
20376;DHT22;10347;51.828;6.466;2022-12-18T17:53:36;2.20;99.90
20376;DHT22;10347;51.828;6.466;2022-12-18T17:56:03;2.20;99.90
20376;DHT22;10347;51.828;6.466;2022-12-18T17:58:31;2.20;99.90
20376;DHT22;10347;51.828;6.466;2022-12-18T18:00:57;2.20;99.90
20376;DHT22;10347;51.828;6.466;2022-12-18T18:03:23;2.20;99.90
20376;DHT22;10347;51.828;6.466;2022-12-18T18:05:57;2.20;99.90
20376;DHT22;10347;51.828;6.466;2022-12-18T18:08:23;2.20;99.90
20376;DHT22;10347;51.828;6.466;2022-12-18T18:10:49;2.20;99.90